createdAt,value
2023-03-18T00:00:13.326Z,98282.91
2023-03-18T00:02:42.184Z,98294.34
2023-03-18T00:05:11.471Z,98295.94
2023-03-18T00:07:38.923Z,98291.28
2023-03-18T00:10:10.017Z,98288.19
2023-03-18T00:12:39.821Z,98288.84
2023-03-18T00:15:16.134Z,98302.59
2023-03-18T00:17:43.350Z,98311.13
2023-03-18T00:20:13.459Z,98320.09
2023-03-18T00:22:41.631Z,98314.47
2023-03-18T00:25:12.693Z,98316.50
2023-03-18T00:27:41.019Z,98316.31
2023-03-18T00:30:09.142Z,98318.94
2023-03-18T00:32:36.091Z,98323.75
2023-03-18T00:35:03.755Z,98314.09
2023-03-18T00:37:31.291Z,98321.00
2023-03-18T00:40:05.179Z,98323.91
2023-03-18T00:42:47.379Z,98326.72
2023-03-18T00:45:17.267Z,98326.22
2023-03-18T00:47:44.521Z,98320.94
2023-03-18T00:50:12.407Z,98324.66
2023-03-18T00:52:39.555Z,98318.56
2023-03-18T00:55:08.455Z,98328.19
2023-03-18T00:57:35.513Z,98328.97
2023-03-18T01:00:05.284Z,98336.91
2023-03-18T01:02:32.112Z,98326.19
2023-03-18T01:04:59.232Z,98327.19
2023-03-18T01:07:26.235Z,98330.00
2023-03-18T01:09:53.023Z,98338.63
2023-03-18T01:12:19.868Z,98337.53
2023-03-18T01:14:48.121Z,98338.41
2023-03-18T01:17:15.437Z,98334.09
2023-03-18T01:19:43.443Z,98341.00
2023-03-18T01:22:10.600Z,98332.41
2023-03-18T01:24:37.316Z,98336.31
2023-03-18T01:27:06.183Z,98335.03
2023-03-18T01:29:34.189Z,98333.44
2023-03-18T01:32:02.874Z,98334.44
2023-03-18T01:34:30.821Z,98337.53
2023-03-18T01:36:58.703Z,98338.72
2023-03-18T01:39:25.708Z,98329.00
2023-03-18T01:41:52.676Z,98325.50
2023-03-18T01:44:25.503Z,98325.91
2023-03-18T01:46:53.498Z,98332.34
2023-03-18T01:49:43.499Z,98327.53
2023-03-18T01:52:18.116Z,98330.03
2023-03-18T01:55:07.052Z,98327.44
2023-03-18T01:57:34.879Z,98322.53
2023-03-18T02:00:04.438Z,98323.00
2023-03-18T02:02:33.917Z,98322.72
2023-03-18T02:05:06.485Z,98320.22
2023-03-18T02:07:35.553Z,98320.09
2023-03-18T02:10:10.962Z,98318.22
2023-03-18T02:12:43.900Z,98321.94
2023-03-18T02:15:15.006Z,98318.41
2023-03-18T02:17:57.682Z,98324.31
2023-03-18T02:20:52.255Z,98324.31
2023-03-18T02:23:56.738Z,98321.09
2023-03-18T02:26:35.412Z,98320.59
2023-03-18T02:29:06.624Z,98324.84
2023-03-18T02:31:36.973Z,98331.53
2023-03-18T02:34:07.723Z,98328.03
2023-03-18T02:36:36.588Z,98326.94
2023-03-18T02:39:04.676Z,98331.44
2023-03-18T02:41:35.672Z,98332.44
2023-03-18T02:44:03.308Z,98330.25
2023-03-18T02:46:41.413Z,98329.13
2023-03-18T02:49:09.265Z,98331.03
2023-03-18T02:51:37.746Z,98330.19
2023-03-18T02:54:12.228Z,98335.19
2023-03-18T02:56:41.573Z,98333.19
2023-03-18T02:59:10.162Z,98325.28
2023-03-18T03:01:38.948Z,98329.69
2023-03-18T03:04:06.912Z,98339.28
2023-03-18T03:06:34.990Z,98345.78
2023-03-18T03:09:03.882Z,98347.16
2023-03-18T03:11:31.103Z,98347.75
2023-03-18T03:13:57.964Z,98349.94
2023-03-18T03:16:25.203Z,98352.78
2023-03-18T03:18:52.078Z,98348.63
2023-03-18T03:21:18.953Z,98355.84
2023-03-18T03:23:47.733Z,98352.56
2023-03-18T03:26:16.135Z,98353.44
2023-03-18T03:28:43.482Z,98347.25
2023-03-18T03:31:10.728Z,98352.94
2023-03-18T03:33:43.541Z,98348.72
2023-03-18T03:36:15.419Z,98353.75
2023-03-18T03:38:43.430Z,98353.25
2023-03-18T03:41:12.887Z,98356.31
2023-03-18T03:43:41.443Z,98359.59
2023-03-18T03:46:10.349Z,98361.00
2023-03-18T03:48:39.383Z,98360.50
2023-03-18T03:51:07.418Z,98359.91
2023-03-18T03:53:35.922Z,98356.91
2023-03-18T03:56:04.379Z,98364.22
2023-03-18T03:58:31.417Z,98355.72
2023-03-18T04:00:58.537Z,98356.44
2023-03-18T04:03:25.819Z,98361.84
2023-03-18T04:05:53.062Z,98366.16
2023-03-18T04:08:20.654Z,98365.75
2023-03-18T04:10:47.619Z,98364.72
2023-03-18T04:13:14.520Z,98364.41
2023-03-18T04:15:42.239Z,98367.44
2023-03-18T04:18:09.282Z,98361.00
2023-03-18T04:20:38.653Z,98362.31
2023-03-18T04:23:07.288Z,98363.22
2023-03-18T04:25:35.295Z,98367.59
2023-03-18T04:28:03.471Z,98368.47
2023-03-18T04:30:30.791Z,98370.97
2023-03-18T04:32:59.497Z,98370.59
2023-03-18T04:35:27.137Z,98364.97
2023-03-18T04:37:54.609Z,98375.53
2023-03-18T04:40:21.768Z,98372.28
2023-03-18T04:42:48.777Z,98378.69
2023-03-18T04:45:17.607Z,98380.44
2023-03-18T04:47:45.420Z,98379.34
2023-03-18T04:50:14.714Z,98374.22
2023-03-18T04:52:42.726Z,98383.56
2023-03-18T04:55:11.435Z,98385.47
2023-03-18T04:57:38.720Z,98379.91
2023-03-18T05:00:17.230Z,98378.59
2023-03-18T05:02:44.476Z,98376.63
2023-03-18T05:05:11.476Z,98381.94
2023-03-18T05:07:38.948Z,98377.06
2023-03-18T05:10:07.165Z,98375.38
2023-03-18T05:12:35.497Z,98379.19
2023-03-18T05:15:03.189Z,98378.53
2023-03-18T05:17:30.144Z,98372.97
2023-03-18T05:19:57.311Z,98377.63
2023-03-18T05:22:25.253Z,98378.47
2023-03-18T05:24:52.219Z,98376.13
2023-03-18T05:27:20.128Z,98381.94
2023-03-18T05:29:48.712Z,98377.56
2023-03-18T05:32:16.664Z,98378.94
2023-03-18T05:34:43.616Z,98380.84
2023-03-18T05:37:14.215Z,98383.81
2023-03-18T05:39:44.793Z,98394.84
2023-03-18T05:42:12.537Z,98391.84
2023-03-18T05:44:40.291Z,98400.53
2023-03-18T05:47:08.504Z,98396.78
2023-03-18T05:49:36.096Z,98396.47
2023-03-18T05:52:03.531Z,98401.03
2023-03-18T05:54:31.203Z,98400.81
2023-03-18T05:56:58.366Z,98403.56
2023-03-18T05:59:25.601Z,98410.91
2023-03-18T06:01:53.886Z,98400.13
2023-03-18T06:04:20.890Z,98400.44
2023-03-18T06:06:49.620Z,98400.75
2023-03-18T06:09:17.493Z,98406.88
2023-03-18T06:11:45.572Z,98409.88
2023-03-18T06:14:12.763Z,98405.63
2023-03-18T06:16:41.594Z,98406.88
2023-03-18T06:19:10.760Z,98412.53
2023-03-18T06:21:39.365Z,98406.16
2023-03-18T06:24:08.194Z,98408.84
2023-03-18T06:26:35.416Z,98411.16
2023-03-18T06:29:03.676Z,98413.03
2023-03-18T06:31:31.156Z,98411.38
2023-03-18T06:33:59.743Z,98407.53
2023-03-18T06:36:27.950Z,98412.28
2023-03-18T06:38:55.897Z,98412.78
2023-03-18T06:41:22.979Z,98408.16
2023-03-18T06:43:50.692Z,98409.47
2023-03-18T06:46:18.591Z,98411.00
2023-03-18T06:48:46.404Z,98407.13
2023-03-18T06:51:13.436Z,98410.88
2023-03-18T06:53:44.669Z,98407.00
2023-03-18T06:56:13.309Z,98412.34
2023-03-18T06:58:40.805Z,98413.16
2023-03-18T07:01:08.320Z,98420.31
2023-03-18T07:03:35.777Z,98416.16
2023-03-18T07:06:04.288Z,98410.59
2023-03-18T07:08:31.489Z,98416.22
2023-03-18T07:10:58.646Z,98415.34
2023-03-18T07:13:28.770Z,98418.19
2023-03-18T07:15:56.714Z,98418.09
2023-03-18T07:18:24.289Z,98416.94
2023-03-18T07:20:51.137Z,98420.94
2023-03-18T07:23:18.451Z,98423.31
2023-03-18T07:25:45.276Z,98423.72
2023-03-18T07:28:12.478Z,98420.34
2023-03-18T07:30:39.644Z,98427.59
2023-03-18T07:33:06.656Z,98429.97
2023-03-18T07:35:33.790Z,98429.88
2023-03-18T07:38:01.034Z,98423.88
2023-03-18T07:40:28.003Z,98424.22
2023-03-18T07:42:54.746Z,98432.72
2023-03-18T07:45:21.790Z,98433.16
2023-03-18T07:47:48.869Z,98437.88
2023-03-18T07:50:16.130Z,98444.28
2023-03-18T07:52:43.348Z,98440.41
2023-03-18T07:55:11.864Z,98437.59
2023-03-18T07:57:39.958Z,98443.91
2023-03-18T08:00:11.329Z,98450.13
2023-03-18T08:02:38.675Z,98445.13
2023-03-18T08:05:09.362Z,98445.69
2023-03-18T08:07:36.974Z,98444.59
2023-03-18T08:10:04.837Z,98445.28
2023-03-18T08:12:45.318Z,98446.47
2023-03-18T08:15:18.205Z,98439.72
2023-03-18T08:17:45.014Z,98442.69
2023-03-18T08:20:12.599Z,98449.63
2023-03-18T08:22:39.841Z,98441.69
2023-03-18T08:25:07.533Z,98444.41
2023-03-18T08:27:34.488Z,98445.38
2023-03-18T08:30:03.668Z,98444.16
2023-03-18T08:32:31.015Z,98440.50
2023-03-18T08:34:57.900Z,98439.16
2023-03-18T08:37:24.814Z,98442.66
2023-03-18T08:39:51.823Z,98440.09
2023-03-18T08:42:19.159Z,98435.44
2023-03-18T08:44:46.035Z,98441.44
2023-03-18T08:47:13.331Z,98441.06
2023-03-18T08:49:40.155Z,98438.47
2023-03-18T08:52:08.327Z,98438.00
2023-03-18T08:54:35.164Z,98436.38
2023-03-18T08:57:02.585Z,98445.78
2023-03-18T08:59:29.547Z,98440.88
2023-03-18T09:01:56.421Z,98442.94
2023-03-18T09:04:25.469Z,98440.66
2023-03-18T09:06:52.317Z,98444.00
2023-03-18T09:09:19.455Z,98439.28
2023-03-18T09:11:47.766Z,98435.63
2023-03-18T09:14:14.919Z,98438.22
2023-03-18T09:16:41.741Z,98425.25
2023-03-18T09:19:08.686Z,98425.50
2023-03-18T09:21:35.950Z,98427.38
2023-03-18T09:24:04.617Z,98419.31
2023-03-18T09:26:32.848Z,98414.28
2023-03-18T09:28:59.735Z,98420.91
2023-03-18T09:31:26.998Z,98414.47
2023-03-18T09:33:53.904Z,98408.94
2023-03-18T09:36:20.749Z,98409.41
2023-03-18T09:38:47.585Z,98405.09
2023-03-18T09:41:32.782Z,98390.69
2023-03-18T09:44:34.319Z,98395.16
2023-03-18T09:47:23.724Z,98404.38
2023-03-18T09:50:27.605Z,98399.00
2023-03-18T09:53:16.598Z,98391.59
2023-03-18T09:55:52.384Z,98379.28
2023-03-18T09:58:59.764Z,98386.84
2023-03-18T10:01:29.062Z,98389.34
2023-03-18T10:04:28.682Z,98393.34
2023-03-18T10:07:06.080Z,98392.19
2023-03-18T10:09:59.364Z,98391.91
2023-03-18T10:12:37.964Z,98383.53
2023-03-18T10:15:18.742Z,98382.84
2023-03-18T10:17:59.919Z,98388.50
2023-03-18T10:20:39.183Z,98390.97
2023-03-18T10:23:45.046Z,98385.19
2023-03-18T10:26:47.118Z,98388.78
2023-03-18T10:29:34.026Z,98382.34
2023-03-18T10:32:23.354Z,98386.09
2023-03-18T10:35:21.237Z,98379.97
2023-03-18T10:38:12.733Z,98385.22
2023-03-18T10:40:43.414Z,98385.03
2023-03-18T10:43:25.282Z,98383.09
2023-03-18T10:46:03.527Z,98379.06
2023-03-18T10:48:53.006Z,98375.50
2023-03-18T10:51:48.574Z,98377.50
2023-03-18T10:54:38.632Z,98381.84
2023-03-18T10:57:05.530Z,98371.00
2023-03-18T10:59:35.263Z,98372.13
2023-03-18T11:02:13.011Z,98363.09
2023-03-18T11:04:51.965Z,98357.00
2023-03-18T11:07:26.906Z,98355.19
2023-03-18T11:09:54.784Z,98350.53
2023-03-18T11:12:28.798Z,98355.94
2023-03-18T11:14:56.356Z,98362.47
2023-03-18T11:17:27.978Z,98351.88
2023-03-18T11:20:16.937Z,98355.28
2023-03-18T11:22:51.960Z,98351.50
2023-03-18T11:25:25.686Z,98344.28
2023-03-18T11:28:02.835Z,98342.06
2023-03-18T11:30:44.199Z,98341.69
2023-03-18T11:33:11.739Z,98340.25
2023-03-18T11:35:52.331Z,98345.03
2023-03-18T11:38:32.862Z,98347.41
2023-03-18T11:41:37.993Z,98339.41
2023-03-18T11:44:18.413Z,98343.38
2023-03-18T11:46:59.684Z,98340.41
2023-03-18T11:49:29.361Z,98342.38
2023-03-18T11:52:26.824Z,98337.84
2023-03-18T11:55:16.098Z,98334.53
2023-03-18T11:58:32.692Z,98335.19
2023-03-18T12:01:35.720Z,98329.25
2023-03-18T12:04:21.933Z,98318.09
2023-03-18T12:07:19.244Z,98315.19
2023-03-18T12:10:04.346Z,98314.66
2023-03-18T12:12:59.757Z,98315.34
2023-03-18T12:15:47.832Z,98312.09
2023-03-18T12:18:37.157Z,98307.19
2023-03-18T12:21:58.362Z,98303.63
2023-03-18T12:24:48.629Z,98301.81
2023-03-18T12:27:39.255Z,98302.13
2023-03-18T12:30:25.077Z,98311.28
2023-03-18T12:33:04.105Z,98312.25
2023-03-18T12:35:53.603Z,98307.75
2023-03-18T12:39:05.920Z,98309.03
2023-03-18T12:42:03.048Z,98306.94
2023-03-18T12:44:58.461Z,98311.03
2023-03-18T12:48:05.178Z,98303.69
2023-03-18T12:51:01.107Z,98314.03
2023-03-18T12:53:36.705Z,98307.28
2023-03-18T12:56:21.008Z,98309.72
2023-03-18T12:59:02.475Z,98301.09
2023-03-18T13:01:42.458Z,98298.22
2023-03-18T13:04:30.463Z,98296.72
2023-03-18T13:07:18.537Z,98300.16
2023-03-18T13:09:59.471Z,98296.38
2023-03-18T13:12:41.600Z,98299.56
2023-03-18T13:15:18.306Z,98296.75
2023-03-18T13:17:49.309Z,98299.63
2023-03-18T13:20:47.710Z,98305.38
2023-03-18T13:24:00.974Z,98308.72
2023-03-18T13:26:54.642Z,98308.28
2023-03-18T13:29:47.162Z,98315.25
2023-03-18T13:32:34.454Z,98301.75
2023-03-18T13:35:51.576Z,98300.94
2023-03-18T13:38:41.340Z,98299.91
2023-03-18T13:41:25.416Z,98298.97
2023-03-18T13:43:56.601Z,98300.78
2023-03-18T13:46:28.882Z,98297.25
2023-03-18T13:49:00.400Z,98302.38
2023-03-18T13:51:28.727Z,98300.81
2023-03-18T13:54:02.101Z,98287.38
2023-03-18T13:56:32.923Z,98283.28
2023-03-18T13:59:07.537Z,98289.72
2023-03-18T14:01:48.450Z,98276.97
2023-03-18T14:04:32.053Z,98288.28
2023-03-18T14:07:20.938Z,98291.28
2023-03-18T14:10:18.388Z,98285.13
2023-03-18T14:12:48.286Z,98287.66
2023-03-18T14:15:15.757Z,98284.84
2023-03-18T14:17:58.158Z,98280.44
2023-03-18T14:20:38.729Z,98275.75
2023-03-18T14:23:24.294Z,98277.00
2023-03-18T14:26:02.684Z,98273.59
2023-03-18T14:28:40.564Z,98280.78
2023-03-18T14:31:30.259Z,98278.41
2023-03-18T14:34:23.334Z,98279.75
2023-03-18T14:36:53.086Z,98270.53
2023-03-18T14:39:34.327Z,98265.97
2023-03-18T14:42:11.108Z,98259.63
2023-03-18T14:44:52.621Z,98259.06
2023-03-18T14:47:38.210Z,98261.78
2023-03-18T14:50:29.508Z,98259.63
2023-03-18T14:53:27.006Z,98255.53
2023-03-18T14:55:57.201Z,98253.84
2023-03-18T14:58:26.358Z,98259.75
2023-03-18T15:01:05.818Z,98258.72
2023-03-18T15:03:42.434Z,98254.38
2023-03-18T15:06:22.980Z,98256.59
2023-03-18T15:08:58.662Z,98254.56
2023-03-18T15:11:26.106Z,98252.09
2023-03-18T15:14:00.127Z,98250.91
2023-03-18T15:16:32.847Z,98250.50
2023-03-18T15:19:00.153Z,98253.03
2023-03-18T15:21:32.435Z,98250.50
2023-03-18T15:24:07.605Z,98258.94
2023-03-18T15:26:39.093Z,98249.00
2023-03-18T15:29:28.156Z,98256.38
2023-03-18T15:32:14.895Z,98251.97
2023-03-18T15:34:45.045Z,98257.44
2023-03-18T15:37:40.548Z,98256.16
2023-03-18T15:40:28.931Z,98253.81
2023-03-18T15:43:27.194Z,98257.72
2023-03-18T15:45:58.844Z,98267.88
2023-03-18T15:48:54.084Z,98263.34
2023-03-18T15:51:44.893Z,98260.03
2023-03-18T15:54:28.425Z,98259.22
2023-03-18T15:56:58.300Z,98260.47
2023-03-18T15:59:31.094Z,98258.06
2023-03-18T16:01:59.875Z,98259.97
2023-03-18T16:04:32.987Z,98252.44
2023-03-18T16:06:59.802Z,98252.41
2023-03-18T16:09:26.994Z,98256.22
2023-03-18T16:12:00.587Z,98254.59
2023-03-18T16:14:43.015Z,98257.63
2023-03-18T16:17:21.496Z,98255.97
2023-03-18T16:19:53.667Z,98253.91
2023-03-18T16:22:20.560Z,98255.66
2023-03-18T16:24:47.764Z,98251.41
2023-03-18T16:27:39.649Z,98258.69
2023-03-18T16:30:17.755Z,98267.94
2023-03-18T16:32:45.979Z,98274.06
2023-03-18T16:35:19.247Z,98275.94
2023-03-18T16:37:48.420Z,98278.25
2023-03-18T16:40:24.459Z,98276.66
2023-03-18T16:42:52.645Z,98279.34
2023-03-18T16:45:33.148Z,98288.72
2023-03-18T16:48:06.693Z,98291.75
2023-03-18T16:50:37.499Z,98279.38
2023-03-18T16:53:27.078Z,98284.28
2023-03-18T16:56:18.904Z,98296.81
2023-03-18T16:58:45.749Z,98298.97
2023-03-18T17:01:16.472Z,98303.03
2023-03-18T17:03:44.251Z,98302.59
2023-03-18T17:06:12.550Z,98298.38
2023-03-18T17:08:40.082Z,98298.88
2023-03-18T17:11:07.494Z,98305.28
2023-03-18T17:13:38.035Z,98301.53
2023-03-18T17:16:05.398Z,98307.22
2023-03-18T17:18:33.197Z,98309.56
2023-03-18T17:21:03.544Z,98311.91
2023-03-18T17:23:30.494Z,98314.91
2023-03-18T17:26:00.547Z,98313.41
2023-03-18T17:28:43.089Z,98317.75
2023-03-18T17:31:13.449Z,98315.97
2023-03-18T17:33:41.103Z,98320.00
2023-03-18T17:36:09.146Z,98318.31
2023-03-18T17:38:36.606Z,98336.38
2023-03-18T17:41:16.378Z,98330.69
2023-03-18T17:43:44.001Z,98328.19
2023-03-18T17:46:11.173Z,98328.22
2023-03-18T17:48:39.537Z,98324.34
2023-03-18T17:51:19.846Z,98328.25
2023-03-18T17:53:49.913Z,98338.03
2023-03-18T17:56:19.141Z,98339.28
2023-03-18T17:58:51.862Z,98330.63
2023-03-18T18:01:27.043Z,98334.63
2023-03-18T18:03:59.544Z,98336.09
2023-03-18T18:06:29.308Z,98331.53
2023-03-18T18:09:01.130Z,98338.03
2023-03-18T18:11:39.600Z,98340.53
2023-03-18T18:14:39.796Z,98339.94
2023-03-18T18:17:14.291Z,98341.28
2023-03-18T18:19:41.569Z,98341.53
2023-03-18T18:22:21.896Z,98333.66
2023-03-18T18:24:50.284Z,98334.66
2023-03-18T18:27:17.218Z,98344.16
2023-03-18T18:29:47.071Z,98334.91
2023-03-18T18:32:15.634Z,98341.84
2023-03-18T18:34:42.607Z,98339.31
2023-03-18T18:37:09.965Z,98345.03
2023-03-18T18:39:36.719Z,98340.94
2023-03-18T18:42:04.266Z,98342.59
2023-03-18T18:44:31.719Z,98344.47
2023-03-18T18:46:59.369Z,98342.78
2023-03-18T18:49:26.452Z,98338.94
2023-03-18T18:51:55.846Z,98352.50
2023-03-18T18:54:24.606Z,98350.75
2023-03-18T18:56:52.180Z,98351.28
2023-03-18T18:59:28.847Z,98348.22
2023-03-18T19:01:56.884Z,98345.47
2023-03-18T19:04:25.214Z,98343.63
2023-03-18T19:06:53.753Z,98347.03
2023-03-18T19:09:25.280Z,98342.94
2023-03-18T19:11:55.996Z,98347.28
2023-03-18T19:14:26.390Z,98361.34
2023-03-18T19:16:58.499Z,98343.41
2023-03-18T19:19:32.216Z,98354.31
2023-03-18T19:21:59.133Z,98354.13
2023-03-18T19:24:37.032Z,98360.41
2023-03-18T19:27:15.483Z,98362.56
2023-03-18T19:29:42.732Z,98363.84
2023-03-18T19:32:19.278Z,98366.75
2023-03-18T19:34:48.163Z,98367.75
2023-03-18T19:37:27.112Z,98370.00
2023-03-18T19:39:56.266Z,98375.31
2023-03-18T19:42:23.543Z,98370.34
2023-03-18T19:44:50.442Z,98374.50
2023-03-18T19:47:28.039Z,98372.09
2023-03-18T19:49:55.317Z,98383.31
2023-03-18T19:52:27.037Z,98388.13
2023-03-18T19:54:55.260Z,98382.53
2023-03-18T19:57:32.462Z,98388.13
2023-03-18T20:00:04.833Z,98384.94
2023-03-18T20:02:34.256Z,98384.94
2023-03-18T20:05:14.380Z,98385.25
2023-03-18T20:07:41.340Z,98387.50
2023-03-18T20:10:11.761Z,98388.44
2023-03-18T20:12:43.247Z,98393.06
2023-03-18T20:15:23.304Z,98389.41
2023-03-18T20:17:52.514Z,98396.13
2023-03-18T20:20:24.815Z,98393.56
2023-03-18T20:23:01.099Z,98394.84
2023-03-18T20:25:44.600Z,98399.94
2023-03-18T20:28:17.238Z,98395.88
2023-03-18T20:30:46.755Z,98403.75
2023-03-18T20:33:14.265Z,98403.97
2023-03-18T20:35:44.917Z,98394.84
2023-03-18T20:38:39.046Z,98394.34
2023-03-18T20:41:17.946Z,98401.06
2023-03-18T20:43:47.908Z,98408.88
2023-03-18T20:46:15.780Z,98408.19
2023-03-18T20:48:43.836Z,98408.38
2023-03-18T20:51:22.132Z,98414.28
2023-03-18T20:53:50.324Z,98405.00
2023-03-18T20:56:19.314Z,98410.09
2023-03-18T20:58:46.321Z,98418.44
2023-03-18T21:01:14.072Z,98426.00
2023-03-18T21:03:42.072Z,98423.63
2023-03-18T21:06:16.101Z,98425.34
2023-03-18T21:08:43.540Z,98421.94
2023-03-18T21:11:29.862Z,98423.19
2023-03-18T21:13:56.927Z,98417.28
2023-03-18T21:16:37.182Z,98420.16
2023-03-18T21:19:04.688Z,98420.31
2023-03-18T21:21:40.173Z,98416.47
2023-03-18T21:24:26.849Z,98405.78
2023-03-18T21:27:04.333Z,98411.03
2023-03-18T21:29:33.510Z,98410.56
2023-03-18T21:32:00.886Z,98407.50
2023-03-18T21:34:27.814Z,98406.88
2023-03-18T21:36:54.684Z,98403.34
2023-03-18T21:39:24.855Z,98407.78
2023-03-18T21:41:52.147Z,98415.84
2023-03-18T21:44:19.204Z,98417.75
2023-03-18T21:46:45.953Z,98417.75
2023-03-18T21:49:12.721Z,98412.94
2023-03-18T21:51:40.510Z,98407.03
2023-03-18T21:54:18.356Z,98414.06
2023-03-18T21:56:46.090Z,98419.19
2023-03-18T21:59:12.841Z,98425.25
2023-03-18T22:01:40.108Z,98424.00
2023-03-18T22:04:07.417Z,98419.97
2023-03-18T22:06:34.692Z,98419.91
2023-03-18T22:09:02.781Z,98420.53
2023-03-18T22:11:31.111Z,98422.16
2023-03-18T22:13:58.045Z,98413.69
2023-03-18T22:16:25.310Z,98411.59
2023-03-18T22:18:52.883Z,98419.28
2023-03-18T22:21:27.353Z,98427.66
2023-03-18T22:23:55.532Z,98424.88
2023-03-18T22:26:22.609Z,98420.25
2023-03-18T22:28:50.917Z,98410.03
2023-03-18T22:31:26.483Z,98418.66
2023-03-18T22:33:54.910Z,98406.69
2023-03-18T22:36:21.943Z,98417.81
2023-03-18T22:38:49.880Z,98420.88
2023-03-18T22:41:31.286Z,98422.34
2023-03-18T22:43:59.986Z,98434.31
2023-03-18T22:46:28.322Z,98439.53
2023-03-18T22:48:55.860Z,98439.06
2023-03-18T22:51:29.639Z,98442.94
2023-03-18T22:53:56.832Z,98443.69
2023-03-18T22:56:23.942Z,98447.25
2023-03-18T22:58:51.825Z,98444.22
2023-03-18T23:01:26.530Z,98443.91
2023-03-18T23:03:55.456Z,98443.59
2023-03-18T23:06:27.081Z,98448.06
2023-03-18T23:08:54.207Z,98452.38
2023-03-18T23:11:21.510Z,98447.78
2023-03-18T23:13:50.882Z,98459.56
2023-03-18T23:16:23.691Z,98448.84
2023-03-18T23:18:51.529Z,98453.59
2023-03-18T23:21:23.196Z,98450.06
2023-03-18T23:23:52.337Z,98459.53
2023-03-18T23:26:20.422Z,98455.75
2023-03-18T23:28:48.945Z,98455.13
2023-03-18T23:31:16.672Z,98445.53
2023-03-18T23:33:44.893Z,98455.00
2023-03-18T23:36:12.394Z,98456.91
2023-03-18T23:38:40.021Z,98455.75
2023-03-18T23:41:08.047Z,98459.56
2023-03-18T23:43:35.183Z,98459.63
2023-03-18T23:46:03.350Z,98454.06
2023-03-18T23:48:31.504Z,98455.06
2023-03-18T23:50:58.833Z,98454.28
2023-03-18T23:53:26.131Z,98459.69
2023-03-18T23:55:53.179Z,98464.00
2023-03-18T23:58:20.120Z,98466.44
